Time;durP1;ratioP1;P1;durP2;ratioP2;P2;SDS_P1;SDS_P2;PMS_P1;PMS_P2;Temp;Humidity;BMP_temperature;BMP_pressure;BME280_temperature;BME280_humidity;BME280_pressure;Samples;Min_cycle;Max_cycle;Signal;HPM_P1;HPM_P2
2022/12/12 00:00:08;;;;;;;24.80;12.17;;;-3.60;99.90;;;;;;5075994;28;20246;-89
2022/12/12 00:02:37;;;;;;;27.13;12.50;;;-3.70;99.90;;;;;;5075331;28;20181;-89
2022/12/12 00:05:05;;;;;;;23.53;11.67;;;-3.70;99.90;;;;;;5075425;28;20229;-88
2022/12/12 00:07:31;;;;;;;22.23;11.43;;;-3.60;99.90;;;;;;5076010;28;20179;-88
2022/12/12 00:09:57;;;;;;;22.97;12.37;;;-3.60;99.90;;;;;;5076100;28;20285;-89
2022/12/12 00:12:23;;;;;;;30.10;12.73;;;-3.50;99.90;;;;;;5076706;28;20241;-89
2022/12/12 00:14:48;;;;;;;22.70;12.37;;;-3.50;99.90;;;;;;5075970;28;20222;-89
2022/12/12 00:17:14;;;;;;;22.63;12.37;;;-3.50;99.90;;;;;;5075587;28;20171;-89
2022/12/12 00:19:42;;;;;;;24.00;12.20;;;-3.50;99.90;;;;;;5075834;28;20163;-88
2022/12/12 00:22:08;;;;;;;25.43;12.80;;;-3.40;99.90;;;;;;5075678;28;20170;-88
2022/12/12 00:24:34;;;;;;;28.10;12.37;;;-3.40;99.90;;;;;;5075016;28;20278;-88
2022/12/12 00:27:00;;;;;;;25.93;12.40;;;-3.40;99.90;;;;;;5075208;28;20160;-90
2022/12/12 00:29:26;;;;;;;25.77;13.97;;;-3.40;99.90;;;;;;5075101;28;20212;-88
2022/12/12 00:31:52;;;;;;;22.77;12.30;;;-3.40;99.90;;;;;;5075032;28;20203;-89
2022/12/12 00:34:18;;;;;;;26.90;12.90;;;-3.30;99.90;;;;;;5075223;28;20172;-88
2022/12/12 00:36:44;;;;;;;22.90;12.57;;;-3.30;99.90;;;;;;5075009;28;20196;-88
2022/12/12 00:39:10;;;;;;;21.57;11.33;;;-3.30;99.90;;;;;;5075374;28;20167;-89
2022/12/12 00:41:36;;;;;;;23.73;12.50;;;-3.30;99.90;;;;;;5074851;28;20174;-89
2022/12/12 00:44:03;;;;;;;23.93;12.57;;;-3.20;99.90;;;;;;5075014;28;20181;-89
2022/12/12 00:46:29;;;;;;;22.03;12.67;;;-3.20;99.90;;;;;;5074513;28;20176;-89
2022/12/12 00:48:56;;;;;;;22.83;12.17;;;-3.20;99.90;;;;;;5074875;28;20663;-89
2022/12/12 00:51:25;;;;;;;24.63;12.67;;;-3.30;99.90;;;;;;5076156;28;20198;-88
2022/12/12 00:53:52;;;;;;;27.20;13.17;;;-3.30;99.90;;;;;;5074474;28;20233;-89
2022/12/12 00:56:20;;;;;;;27.67;12.50;;;-3.40;99.90;;;;;;5074171;28;20195;-89
2022/12/12 00:58:46;;;;;;;24.83;12.87;;;-3.30;99.90;;;;;;5074130;28;20524;-89
2022/12/12 01:01:17;;;;;;;23.83;12.17;;;-3.30;99.90;;;;;;5074089;28;20172;-89
2022/12/12 01:03:43;;;;;;;24.83;12.40;;;-3.30;99.90;;;;;;5074484;28;20163;-89
2022/12/12 01:06:09;;;;;;;21.87;11.37;;;-3.20;99.90;;;;;;5074930;28;20211;-89
2022/12/12 01:08:36;;;;;;;25.17;12.53;;;-3.30;99.90;;;;;;5075185;28;20180;-89
2022/12/12 01:11:01;;;;;;;26.43;13.03;;;-3.30;99.90;;;;;;5074474;28;20231;-89
2022/12/12 01:13:27;;;;;;;22.80;12.53;;;-3.30;99.90;;;;;;5074646;28;20168;-88
2022/12/12 01:15:53;;;;;;;21.57;12.03;;;-3.30;99.90;;;;;;5075327;28;20583;-89
2022/12/12 01:18:19;;;;;;;23.07;12.33;;;-3.30;99.90;;;;;;5075901;28;20243;-88
2022/12/12 01:20:46;;;;;;;24.33;12.53;;;-3.30;99.90;;;;;;5075178;28;20172;-89
2022/12/12 01:23:13;;;;;;;27.77;13.13;;;-3.30;99.90;;;;;;5075376;28;20175;-90
2022/12/12 01:25:39;;;;;;;23.03;12.03;;;-3.20;99.90;;;;;;5074763;28;20302;-89
2022/12/12 01:28:06;;;;;;;22.00;12.17;;;-3.20;99.90;;;;;;5075301;28;20211;-88
2022/12/12 01:30:32;;;;;;;24.97;12.57;;;-3.20;99.90;;;;;;5074662;28;20290;-89
2022/12/12 01:33:00;;;;;;;25.67;13.57;;;-3.20;99.90;;;;;;5077460;28;20168;-89
2022/12/12 01:35:26;;;;;;;23.23;12.67;;;-3.20;99.90;;;;;;5079107;28;20671;-89
2022/12/12 01:37:53;;;;;;;25.87;13.17;;;-3.20;99.90;;;;;;5082188;28;20620;-89
2022/12/12 01:40:23;;;;;;;23.23;12.27;;;-3.20;99.90;;;;;;5082015;28;20174;-89
2022/12/12 01:42:51;;;;;;;25.50;12.53;;;-3.20;99.90;;;;;;5082490;28;20181;-90
2022/12/12 01:45:58;;;;;;;26.27;13.50;;;-3.20;99.90;;;;;;5082549;28;20312;-88
2022/12/12 01:48:39;;;;;;;24.10;12.00;;;-3.20;99.90;;;;;;5003409;28;20194;-89
2022/12/12 01:51:11;;;;;;;25.30;12.37;;;-3.10;99.90;;;;;;5082110;28;20217;-89
2022/12/12 01:53:37;;;;;;;25.77;12.67;;;-3.10;99.90;;;;;;5100006;28;20159;-90
2022/12/12 01:56:11;;;;;;;24.03;11.77;;;-3.20;99.90;;;;;;5082215;28;20228;-89
2022/12/12 01:58:44;;;;;;;29.53;13.67;;;-3.20;99.90;;;;;;5082235;28;20164;-89
2022/12/12 02:01:11;;;;;;;25.93;13.20;;;-3.20;99.90;;;;;;5081682;28;20246;-88
2022/12/12 02:03:38;;;;;;;23.73;13.57;;;-3.30;99.90;;;;;;5081759;28;20163;-89
2022/12/12 02:06:11;;;;;;;27.80;13.27;;;-3.30;99.90;;;;;;5077772;28;20786;-89
2022/12/12 02:08:39;;;;;;;24.87;13.20;;;-3.30;99.90;;;;;;5078218;28;20171;-89
2022/12/12 02:11:05;;;;;;;24.57;12.90;;;-3.30;99.90;;;;;;5078593;28;20671;-89
2022/12/12 02:13:33;;;;;;;30.67;13.83;;;-3.30;99.90;;;;;;5078491;28;20164;-90
2022/12/12 02:16:35;;;;;;;27.90;14.30;;;-3.30;99.90;;;;;;5077601;28;20207;-89
2022/12/12 02:19:25;;;;;;;24.97;12.27;;;-3.30;99.90;;;;;;5039322;28;20179;-89
2022/12/12 02:21:57;;;;;;;26.60;13.23;;;-3.20;99.90;;;;;;5078059;28;20168;-88
2022/12/12 02:24:53;;;;;;;25.57;12.87;;;-3.20;99.90;;;;;;5078260;28;20671;-88
2022/12/12 02:27:34;;;;;;;26.97;13.50;;;-3.20;99.90;;;;;;5077745;28;20193;-88
2022/12/12 02:30:21;;;;;;;26.57;13.60;;;-3.30;99.90;;;;;;5077422;28;20218;-88
2022/12/12 02:33:20;;;;;;;24.40;13.57;;;-3.40;99.90;;;;;;5076795;28;20172;-89
2022/12/12 02:36:00;;;;;;;29.40;13.67;;;-3.40;99.90;;;;;;5076832;28;20196;-89
2022/12/12 02:38:32;;;;;;;29.43;14.73;;;-3.50;99.90;;;;;;5077511;28;20171;-89
2022/12/12 02:41:21;;;;;;;30.50;13.77;;;-3.50;99.90;;;;;;5077379;28;20203;-89
2022/12/12 02:44:13;;;;;;;26.20;12.83;;;-3.50;99.90;;;;;;5077859;28;20629;-90
2022/12/12 02:46:51;;;;;;;26.40;13.50;;;-3.50;99.90;;;;;;5074316;28;20222;-89
2022/12/12 02:49:38;;;;;;;27.50;14.10;;;-3.50;99.90;;;;;;5077413;28;20193;-89
2022/12/12 02:52:04;;;;;;;28.60;13.03;;;-3.50;99.90;;;;;;5077559;28;20222;-89
2022/12/12 02:54:30;;;;;;;27.13;13.00;;;-3.50;99.90;;;;;;5077300;28;20201;-89
2022/12/12 02:56:58;;;;;;;25.73;12.63;;;-3.50;99.90;;;;;;5077920;28;20274;-90
2022/12/12 02:59:36;;;;;;;27.17;13.73;;;-3.50;99.90;;;;;;5077867;28;20173;-88
2022/12/12 03:02:36;;;;;;;32.90;14.80;;;-3.60;99.90;;;;;;5077471;28;20167;-89
2022/12/12 03:12:02;;;;;;;25.03;12.63;;;-3.60;99.90;;;;;;5078632;28;20357;-89
2022/12/12 03:15:01;;;;;;;28.77;13.03;;;-3.50;99.90;;;;;;5059562;28;20204;-90
2022/12/12 03:17:40;;;;;;;28.90;13.67;;;-3.50;99.90;;;;;;5077564;28;20167;-89
2022/12/12 03:20:16;;;;;;;27.53;13.03;;;-3.50;99.90;;;;;;5078085;28;20180;-89
2022/12/12 03:22:54;;;;;;;26.77;13.67;;;-3.50;99.90;;;;;;5077248;28;20184;-89
2022/12/12 03:25:46;;;;;;;29.83;13.03;;;-3.50;99.90;;;;;;5076920;28;20206;-90
2022/12/12 03:28:32;;;;;;;24.97;13.00;;;-3.50;99.90;;;;;;5077039;28;20174;-89
2022/12/12 03:31:03;;;;;;;29.50;13.53;;;-3.50;99.90;;;;;;5076690;28;20315;-89
2022/12/12 03:33:51;;;;;;;23.90;12.77;;;-3.60;99.90;;;;;;5077322;28;20175;-89
2022/12/12 03:36:29;;;;;;;29.93;13.73;;;-3.60;99.90;;;;;;5076893;28;20196;-89
2022/12/12 03:39:10;;;;;;;29.03;13.73;;;-3.60;99.90;;;;;;5076580;28;20171;-89
2022/12/12 03:41:43;;;;;;;27.00;13.83;;;-3.60;99.90;;;;;;5077073;28;20177;-89
2022/12/12 03:44:25;;;;;;;28.97;13.30;;;-3.60;99.90;;;;;;5077053;28;20193;-88
2022/12/12 03:46:58;;;;;;;26.97;13.33;;;-3.50;99.90;;;;;;5076724;28;20197;-89
2022/12/12 03:49:37;;;;;;;27.53;13.57;;;-3.50;99.90;;;;;;5077453;28;20179;-90
2022/12/12 03:52:15;;;;;;;26.50;12.67;;;-3.50;99.90;;;;;;5076227;28;20708;-89
2022/12/12 03:54:50;;;;;;;27.47;13.87;;;-3.50;99.90;;;;;;5076706;28;20203;-89
2022/12/12 03:57:46;;;;;;;26.23;12.63;;;-3.50;99.90;;;;;;5076843;28;20258;-89
2022/12/12 04:00:14;;;;;;;29.00;13.90;;;-3.50;99.90;;;;;;5054225;28;20257;-89
2022/12/12 04:02:57;;;;;;;27.73;13.87;;;-3.50;99.90;;;;;;5075603;28;20239;-89
2022/12/12 04:14:50;;;;;;;27.37;13.50;;;-3.40;99.90;;;;;;5077742;28;20204;-89
2022/12/12 04:17:20;;;;;;;24.83;12.97;;;-3.40;99.90;;;;;;5076838;28;20182;-88
2022/12/12 04:28:39;;;;;;;26.07;13.30;;;-3.50;99.90;;;;;;5077066;28;20627;-89
2022/12/12 04:31:06;;;;;;;25.57;13.27;;;-3.60;99.90;;;;;;5077307;28;20194;-89
2022/12/12 04:33:44;;;;;;;29.90;13.60;;;-3.50;99.90;;;;;;5075942;28;20638;-89
2022/12/12 04:36:12;;;;;;;27.90;13.43;;;-3.50;99.90;;;;;;5076340;28;20299;-90
2022/12/12 04:38:42;;;;;;;25.80;13.60;;;-3.60;99.90;;;;;;5075962;28;20167;-89
2022/12/12 04:41:13;;;;;;;30.30;14.50;;;-3.60;99.90;;;;;;5076381;28;20566;-90
2022/12/12 04:43:42;;;;;;;25.23;13.10;;;-3.60;99.90;;;;;;5077140;28;20163;-89
2022/12/12 04:46:12;;;;;;;27.33;13.53;;;-3.50;99.90;;;;;;5075781;28;20734;-89
2022/12/12 04:48:46;;;;;;;26.47;13.43;;;-3.50;99.90;;;;;;5075765;28;20197;-89
2022/12/12 04:51:19;;;;;;;28.73;13.30;;;-3.60;99.90;;;;;;5075857;28;20289;-90
2022/12/12 04:53:50;;;;;;;24.10;12.83;;;-3.60;99.90;;;;;;5075623;28;20227;-89
2022/12/12 04:56:22;;;;;;;27.73;13.73;;;-3.60;99.90;;;;;;5075748;28;20563;-89
2022/12/12 04:58:48;;;;;;;33.00;14.67;;;-3.60;99.90;;;;;;5075417;28;20224;-88
2022/12/12 05:01:42;;;;;;;29.97;14.07;;;-3.60;99.90;;;;;;5068830;28;20191;-89
2022/12/12 05:04:16;;;;;;;26.70;13.10;;;-3.60;99.90;;;;;;5049131;28;20224;-89
2022/12/12 05:06:47;;;;;;;26.80;13.63;;;-3.60;99.90;;;;;;5059488;28;20178;-89
2022/12/12 05:09:16;;;;;;;28.30;14.73;;;-3.70;99.90;;;;;;5059997;28;20631;-89
2022/12/12 05:11:42;;;;;;;30.60;14.20;;;-3.60;99.90;;;;;;5063621;28;20693;-89
2022/12/12 05:14:09;;;;;;;28.20;14.03;;;-3.60;99.90;;;;;;5063167;28;20178;-89
2022/12/12 05:16:40;;;;;;;32.23;14.63;;;-3.60;99.90;;;;;;5063189;28;20180;-88
2022/12/12 05:19:06;;;;;;;31.50;14.80;;;-3.70;99.90;;;;;;5063372;28;20202;-90
2022/12/12 05:21:31;;;;;;;27.03;13.37;;;-3.60;99.90;;;;;;5062973;28;20180;-89
2022/12/12 05:23:57;;;;;;;28.33;14.17;;;-3.70;99.90;;;;;;5063102;28;20607;-88
2022/12/12 05:26:26;;;;;;;34.83;15.20;;;-3.60;99.90;;;;;;5080775;28;20284;-89
2022/12/12 05:28:53;;;;;;;26.27;13.30;;;-3.70;99.90;;;;;;5062628;28;20187;-88
2022/12/12 05:31:20;;;;;;;26.73;13.17;;;-3.70;99.90;;;;;;5062913;28;20293;-90
2022/12/12 05:33:48;;;;;;;25.93;12.93;;;-3.70;99.90;;;;;;5063268;28;20190;-90
2022/12/12 05:36:14;;;;;;;31.37;13.67;;;-3.80;99.90;;;;;;5063111;28;20236;-89
2022/12/12 05:38:40;;;;;;;27.27;13.47;;;-3.80;99.90;;;;;;5062503;28;20166;-88
2022/12/12 05:41:07;;;;;;;22.77;13.03;;;-3.80;99.90;;;;;;5062768;28;20314;-90
2022/12/12 05:43:33;;;;;;;27.43;13.77;;;-3.80;99.90;;;;;;5062879;28;20236;-89
2022/12/12 05:46:00;;;;;;;25.77;13.20;;;-3.80;99.90;;;;;;5062620;28;20210;-90
2022/12/12 05:48:27;;;;;;;25.87;13.13;;;-3.90;99.90;;;;;;5062611;28;20177;-90
2022/12/12 05:50:53;;;;;;;28.00;13.87;;;-3.90;99.90;;;;;;5062535;28;20208;-89
2022/12/12 05:53:19;;;;;;;29.13;13.90;;;-3.90;99.90;;;;;;5062397;28;20205;-89
2022/12/12 05:55:47;;;;;;;29.60;13.93;;;-3.90;99.90;;;;;;5062405;28;20210;-89
2022/12/12 05:58:13;;;;;;;25.53;13.20;;;-3.90;99.90;;;;;;5062354;28;20244;-89
2022/12/12 06:00:40;;;;;;;33.93;15.33;;;-3.90;99.90;;;;;;5064697;28;20202;-89
2022/12/12 06:03:06;;;;;;;29.40;14.00;;;-3.90;99.90;;;;;;5082706;28;20179;-89
2022/12/12 06:05:34;;;;;;;30.50;14.40;;;-3.80;99.90;;;;;;5082394;28;20236;-90
2022/12/12 06:07:59;;;;;;;28.70;13.93;;;-3.90;99.90;;;;;;5082804;28;20183;-89
2022/12/12 06:10:26;;;;;;;29.73;13.63;;;-3.90;99.90;;;;;;5082227;28;20627;-90
2022/12/12 06:12:51;;;;;;;29.63;13.67;;;-3.80;99.90;;;;;;5082568;28;20561;-90
2022/12/12 06:15:17;;;;;;;30.10;13.90;;;-3.80;99.90;;;;;;5082716;28;20223;-89
2022/12/12 06:17:43;;;;;;;30.60;13.70;;;-3.80;99.90;;;;;;5081886;28;20630;-89
2022/12/12 06:20:09;;;;;;;26.60;13.67;;;-3.70;99.90;;;;;;5082462;28;20572;-89
2022/12/12 06:22:35;;;;;;;28.10;13.87;;;-3.80;99.90;;;;;;5081663;28;20178;-91
2022/12/12 06:25:02;;;;;;;29.53;13.57;;;-3.70;99.90;;;;;;5082682;28;20215;-89
2022/12/12 06:27:28;;;;;;;25.30;13.60;;;-3.80;99.90;;;;;;5099858;28;20211;-89
2022/12/12 06:29:54;;;;;;;30.70;15.20;;;-3.80;99.90;;;;;;5081732;28;20265;-89
2022/12/12 06:32:19;;;;;;;26.93;13.93;;;-3.80;99.90;;;;;;5082471;28;20178;-90
2022/12/12 06:34:45;;;;;;;23.70;12.70;;;-3.70;99.90;;;;;;5081914;28;20600;-89
2022/12/12 06:37:11;;;;;;;31.47;13.70;;;-3.80;99.90;;;;;;5081963;28;20172;-89
2022/12/12 06:39:37;;;;;;;26.67;12.90;;;-3.80;99.90;;;;;;5081140;28;20241;-89
2022/12/12 06:42:04;;;;;;;28.73;14.87;;;-3.90;99.90;;;;;;5081570;28;20179;-90
2022/12/12 06:44:31;;;;;;;29.57;14.53;;;-3.80;99.90;;;;;;5081633;28;20288;-89
2022/12/12 06:46:57;;;;;;;24.53;11.77;;;-3.90;99.90;;;;;;5081654;28;20616;-90
2022/12/12 06:49:24;;;;;;;26.53;13.33;;;-3.90;99.90;;;;;;5071948;28;20183;-90
2022/12/12 06:51:50;;;;;;;28.20;14.40;;;-3.90;99.90;;;;;;5060542;28;20272;-90
2022/12/12 06:54:18;;;;;;;28.80;13.77;;;-4.00;99.90;;;;;;5072111;28;20273;-89
2022/12/12 06:56:54;;;;;;;31.17;13.93;;;-4.00;99.90;;;;;;5082965;28;20162;-89
2022/12/12 06:59:19;;;;;;;25.73;12.73;;;-3.90;99.90;;;;;;5075638;28;20186;-88
2022/12/12 07:04:40;;;;;;;26.03;12.93;;;-4.00;99.90;;;;;;5079142;28;20746;-89
2022/12/12 07:07:09;;;;;;;26.67;12.90;;;-4.00;99.90;;;;;;5061558;28;20171;-89
2022/12/12 07:09:35;;;;;;;25.70;12.77;;;-4.00;99.90;;;;;;5061623;28;20186;-89
2022/12/12 07:12:01;;;;;;;30.07;15.03;;;-3.90;99.90;;;;;;5059873;28;20436;-89
2022/12/12 07:14:27;;;;;;;26.57;13.80;;;-3.90;99.90;;;;;;5059351;28;20255;-88
2022/12/12 07:16:53;;;;;;;27.07;13.27;;;-3.80;99.90;;;;;;5067770;28;20177;-88
2022/12/12 07:19:19;;;;;;;26.10;13.33;;;-3.80;99.90;;;;;;5062106;28;20659;-88
2022/12/12 07:21:44;;;;;;;31.37;13.43;;;-3.80;99.90;;;;;;5060402;28;20179;-89
2022/12/12 07:24:11;;;;;;;28.60;14.43;;;-3.70;99.90;;;;;;5060339;28;20190;-89
2022/12/12 07:26:37;;;;;;;26.97;14.03;;;-3.60;99.90;;;;;;5060062;28;20233;-89
2022/12/12 07:29:04;;;;;;;30.67;14.50;;;-3.70;99.90;;;;;;5059183;28;20183;-89
2022/12/12 07:31:31;;;;;;;24.53;13.07;;;-3.70;99.90;;;;;;5054624;28;20352;-88
2022/12/12 07:33:57;;;;;;;27.87;14.83;;;-3.70;99.90;;;;;;5051554;28;20181;-88
2022/12/12 07:36:24;;;;;;;31.37;14.07;;;-3.70;99.90;;;;;;5051957;28;20203;-89
2022/12/12 07:38:53;;;;;;;35.17;16.37;;;-3.60;99.90;;;;;;5052112;28;20614;-89
2022/12/12 07:41:19;;;;;;;31.80;15.37;;;-3.60;99.90;;;;;;5053326;28;20170;-88
2022/12/12 07:43:48;;;;;;;30.50;14.27;;;-3.60;99.90;;;;;;5068273;28;20190;-89
2022/12/12 07:46:17;;;;;;;28.07;14.53;;;-3.60;99.90;;;;;;5057710;28;20685;-87
2022/12/12 07:48:44;;;;;;;30.33;15.20;;;-3.50;99.90;;;;;;5056923;28;20182;-88
2022/12/12 07:51:10;;;;;;;31.27;14.53;;;-3.50;99.90;;;;;;5057872;28;20276;-88
2022/12/12 07:53:36;;;;;;;30.23;14.43;;;-3.50;99.90;;;;;;5057445;28;20628;-88
2022/12/12 07:56:07;;;;;;;30.63;14.40;;;-3.40;99.90;;;;;;5056708;28;20206;-87
2022/12/12 07:58:34;;;;;;;29.37;14.67;;;-3.30;99.90;;;;;;5065075;28;20178;-88
2022/12/12 08:01:00;;;;;;;29.97;14.37;;;-3.30;99.90;;;;;;5072329;28;20655;-87
2022/12/12 08:03:28;;;;;;;30.40;14.80;;;-3.30;99.90;;;;;;5055223;28;20175;-88
2022/12/12 08:05:54;;;;;;;30.47;15.50;;;-3.30;99.90;;;;;;5073266;28;20226;-88
2022/12/12 08:08:19;;;;;;;25.60;14.07;;;-3.30;99.90;;;;;;5094735;28;20174;-87
2022/12/12 08:10:45;;;;;;;33.83;15.57;;;-3.30;99.90;;;;;;5076267;28;20205;-89
2022/12/12 08:13:11;;;;;;;34.07;14.50;;;-3.20;99.90;;;;;;5076155;28;20173;-88
2022/12/12 08:15:37;;;;;;;35.07;15.07;;;-3.20;99.90;;;;;;5060810;28;20273;-88
2022/12/12 08:18:04;;;;;;;30.13;14.87;;;-3.20;99.90;;;;;;5054764;28;20203;-88
2022/12/12 08:20:30;;;;;;;33.90;15.20;;;-3.20;99.90;;;;;;5061445;28;20197;-88
2022/12/12 08:22:57;;;;;;;30.90;15.90;;;-3.10;99.90;;;;;;5054730;28;20581;-88
2022/12/12 08:25:23;;;;;;;27.40;14.47;;;-3.10;99.90;;;;;;5069747;28;20204;-88
2022/12/12 08:27:49;;;;;;;31.37;15.07;;;-3.10;99.90;;;;;;5074449;28;20171;-89
2022/12/12 08:30:15;;;;;;;25.40;13.70;;;-3.10;99.90;;;;;;5074894;28;20236;-89
2022/12/12 08:32:41;;;;;;;30.20;14.80;;;-3.10;99.90;;;;;;5074418;28;20261;-89
2022/12/12 08:48:35;;;;;;;32.03;14.77;;;-2.90;99.90;;;;;;5053532;28;20163;-89
2022/12/12 08:51:04;;;;;;;29.97;15.07;;;-2.80;99.90;;;;;;5035523;28;20230;-89
2022/12/12 08:53:30;;;;;;;34.63;15.00;;;-2.80;99.90;;;;;;5035270;28;20168;-89
2022/12/12 08:55:57;;;;;;;31.27;15.37;;;-2.80;99.90;;;;;;5035618;28;20208;-89
2022/12/12 08:58:23;;;;;;;31.67;15.33;;;-2.70;99.90;;;;;;5034862;28;20182;-89
2022/12/12 09:00:49;;;;;;;33.67;15.77;;;-2.70;99.90;;;;;;5034987;28;20196;-89
2022/12/12 09:03:16;;;;;;;32.17;15.30;;;-2.70;99.90;;;;;;5034974;28;20233;-89
2022/12/12 09:05:46;;;;;;;31.40;15.50;;;-2.60;99.90;;;;;;5034902;28;20339;-89
2022/12/12 09:08:14;;;;;;;33.23;15.70;;;-2.60;99.90;;;;;;5034980;28;20176;-89
2022/12/12 09:10:41;;;;;;;33.53;15.30;;;-2.60;99.90;;;;;;5034765;28;20255;-88
2022/12/12 09:13:07;;;;;;;29.53;15.07;;;-2.60;99.90;;;;;;5035306;28;20205;-88
2022/12/12 09:15:36;;;;;;;29.20;14.63;;;-2.60;99.90;;;;;;5035223;28;20208;-89
2022/12/12 09:18:03;;;;;;;31.83;15.33;;;-2.60;99.90;;;;;;5035115;28;20239;-89
2022/12/12 09:20:29;;;;;;;28.50;15.33;;;-2.60;99.90;;;;;;5034827;28;20181;-89
2022/12/12 09:22:58;;;;;;;36.23;16.17;;;-2.60;99.90;;;;;;5034589;28;20181;-89
2022/12/12 09:25:24;;;;;;;33.13;15.93;;;-2.60;99.90;;;;;;5035263;28;20203;-89
2022/12/12 09:27:52;;;;;;;31.70;16.03;;;-2.60;99.90;;;;;;5038002;28;20185;-89
2022/12/12 09:30:19;;;;;;;29.80;16.43;;;-2.50;99.90;;;;;;5035794;28;20287;-89
2022/12/12 09:32:44;;;;;;;33.83;16.43;;;-2.50;99.90;;;;;;5035826;28;20619;-89
2022/12/12 09:35:30;;;;;;;33.53;16.87;;;-2.50;99.90;;;;;;5035862;28;20212;-89
2022/12/12 09:38:19;;;;;;;36.53;15.77;;;-2.40;99.90;;;;;;5035907;28;20170;-89
2022/12/12 09:40:52;;;;;;;33.47;15.57;;;-2.40;99.90;;;;;;5036091;28;20617;-89
2022/12/12 09:43:24;;;;;;;34.83;15.63;;;-2.30;99.90;;;;;;5038978;28;20181;-89
2022/12/12 09:46:15;;;;;;;35.53;16.00;;;-2.40;99.90;;;;;;5047950;28;20215;-89
2022/12/12 09:48:47;;;;;;;30.80;15.40;;;-2.40;99.90;;;;;;5055950;28;20181;-89
2022/12/12 09:51:25;;;;;;;31.00;15.37;;;-2.40;99.90;;;;;;5055895;28;20207;-89
2022/12/12 09:54:00;;;;;;;27.57;15.13;;;-2.40;99.90;;;;;;5055862;28;20202;-89
2022/12/12 09:56:34;;;;;;;35.87;15.97;;;-2.40;99.90;;;;;;5057271;28;20170;-89
2022/12/12 09:59:29;;;;;;;30.47;15.43;;;-2.40;99.90;;;;;;5059677;28;20172;-90
2022/12/12 10:02:47;;;;;;;30.30;15.87;;;-2.40;99.90;;;;;;5059522;28;20252;-90
2022/12/12 10:05:38;;;;;;;27.97;14.27;;;-2.30;99.90;;;;;;5050407;28;20294;-90
2022/12/12 10:08:42;;;;;;;33.33;15.83;;;-2.20;99.90;;;;;;5038640;28;20204;-90
2022/12/12 10:14:02;;;;;;;30.57;15.73;;;-2.10;99.90;;;;;;5075506;28;20204;-90
2022/12/12 10:16:31;;;;;;;30.50;16.33;;;-2.10;99.90;;;;;;5048750;28;20194;-90
2022/12/12 10:19:06;;;;;;;31.47;15.10;;;-2.00;99.90;;;;;;5065532;28;20521;-91
2022/12/12 10:21:39;;;;;;;30.73;15.67;;;-2.10;99.90;;;;;;5055964;28;20200;-90
2022/12/12 10:24:27;;;;;;;30.57;16.37;;;-2.00;99.90;;;;;;5049374;28;20240;-89
2022/12/12 10:26:53;;;;;;;29.57;16.33;;;-2.00;99.90;;;;;;5050567;28;20588;-90
2022/12/12 10:29:21;;;;;;;35.20;16.93;;;-1.90;99.90;;;;;;5050145;28;20227;-91
2022/12/12 10:32:10;;;;;;;28.83;15.43;;;-1.90;99.90;;;;;;5051876;28;20217;-91
2022/12/12 10:34:56;;;;;;;30.27;15.93;;;-1.80;99.90;;;;;;5037390;28;20267;-89
2022/12/12 10:37:47;;;;;;;29.73;15.57;;;-1.70;99.90;;;;;;5037149;28;20193;-91
2022/12/12 10:40:37;;;;;;;33.13;16.03;;;-1.80;99.90;;;;;;5038021;28;20185;-91
2022/12/12 10:43:27;;;;;;;31.03;14.80;;;-1.80;99.90;;;;;;5037712;28;20209;-90
2022/12/12 10:45:55;;;;;;;29.07;14.60;;;-1.70;99.90;;;;;;5038457;28;20296;-90
2022/12/12 10:48:21;;;;;;;28.00;16.00;;;-1.70;99.90;;;;;;5037950;28;20273;-91
2022/12/12 10:50:58;;;;;;;30.33;15.30;;;-1.70;99.90;;;;;;5038339;28;20296;-91
2022/12/12 10:53:24;;;;;;;32.23;15.90;;;-1.60;99.90;;;;;;5038145;28;20540;-91
2022/12/12 10:56:00;;;;;;;36.00;16.90;;;-1.60;99.90;;;;;;5037490;28;20201;-90
2022/12/12 10:58:35;;;;;;;34.03;17.03;;;-1.60;99.90;;;;;;5038097;28;20185;-90
2022/12/12 11:01:09;;;;;;;31.83;14.97;;;-1.50;99.90;;;;;;5037903;28;20227;-90
2022/12/12 11:03:40;;;;;;;28.83;15.33;;;-1.50;99.90;;;;;;5037279;28;20174;-91
2022/12/12 11:06:09;;;;;;;30.70;15.47;;;-1.50;99.90;;;;;;5051456;28;20233;-90
2022/12/12 11:08:36;;;;;;;29.53;15.20;;;-1.50;99.90;;;;;;5038048;28;20166;-91
2022/12/12 11:11:18;;;;;;;36.23;16.47;;;-1.50;99.90;;;;;;5053678;28;20205;-92
2022/12/12 11:13:56;;;;;;;35.83;17.40;;;-1.40;99.90;;;;;;5054168;28;20219;-91
2022/12/12 11:16:25;;;;;;;31.87;16.00;;;-1.40;99.90;;;;;;5053488;28;20276;-91
2022/12/12 11:19:03;;;;;;;26.80;14.53;;;-1.40;99.90;;;;;;5054021;28;20166;-90
2022/12/12 11:21:34;;;;;;;31.13;15.40;;;-1.30;99.90;;;;;;5054600;28;20173;-91
2022/12/12 11:27:13;;;;;;;32.13;15.40;;;-1.30;99.90;;;;;;5055859;28;20173;-91
2022/12/12 11:29:53;;;;;;;29.03;14.57;;;-1.40;99.90;;;;;;5054183;28;20170;-91
2022/12/12 11:32:27;;;;;;;29.53;15.10;;;-1.40;99.90;;;;;;5054416;28;20201;-93
2022/12/12 11:34:57;;;;;;;30.87;16.13;;;-1.30;99.90;;;;;;5053746;28;20193;-92
2022/12/12 11:37:27;;;;;;;26.27;15.03;;;-1.30;99.90;;;;;;5053893;28;20170;-91
2022/12/12 11:39:55;;;;;;;30.60;15.77;;;-1.30;99.90;;;;;;5054879;28;20636;-92
2022/12/12 11:42:27;;;;;;;33.10;14.30;;;-1.30;99.90;;;;;;5055514;28;20170;-93
2022/12/12 11:45:18;;;;;;;24.57;14.13;;;-1.30;99.90;;;;;;5054439;28;20205;-91
2022/12/12 11:47:46;;;;;;;31.33;15.63;;;-1.30;99.90;;;;;;5037945;28;20572;-91
2022/12/12 11:50:20;;;;;;;27.03;15.03;;;-1.30;99.90;;;;;;5055154;28;20229;-92
2022/12/12 11:52:48;;;;;;;30.10;15.17;;;-1.30;99.90;;;;;;5053713;28;20224;-92
2022/12/12 11:55:23;;;;;;;30.97;15.80;;;-1.30;99.90;;;;;;5053179;28;20197;-93
2022/12/12 11:58:18;;;;;;;35.70;15.43;;;-1.30;99.90;;;;;;5053155;28;20162;-92
2022/12/12 12:00:49;;;;;;;34.83;16.90;;;-1.30;99.90;;;;;;5053560;28;20170;-91
2022/12/12 12:04:00;;;;;;;30.30;16.10;;;-1.30;99.90;;;;;;5053601;28;20253;-91
2022/12/12 12:06:56;;;;;;;27.97;14.63;;;-1.30;99.90;;;;;;5037495;28;20178;-92
2022/12/12 12:09:50;;;;;;;30.00;15.03;;;-1.20;99.90;;;;;;5036535;28;20264;-90
2022/12/12 12:12:44;;;;;;;28.93;15.87;;;-1.20;99.90;;;;;;5036699;28;20244;-90
2022/12/12 12:15:22;;;;;;;29.30;15.57;;;-1.10;99.90;;;;;;5037150;28;20216;-90
2022/12/12 12:18:14;;;;;;;32.60;16.63;;;-1.10;99.90;;;;;;5038701;28;20189;-91
2022/12/12 12:21:01;;;;;;;33.10;16.30;;;-1.20;99.90;;;;;;5036720;28;20173;-91
2022/12/12 12:23:27;;;;;;;30.93;16.33;;;-1.20;99.90;;;;;;5037373;28;20174;-92
2022/12/12 12:26:18;;;;;;;38.77;17.30;;;-1.20;99.90;;;;;;5035992;28;20210;-92
2022/12/12 12:28:49;;;;;;;33.73;17.43;;;-1.10;99.90;;;;;;5036879;28;20177;-91
2022/12/12 12:31:21;;;;;;;32.73;17.23;;;-1.10;99.90;;;;;;5036241;28;20557;-91
2022/12/12 12:34:13;;;;;;;36.00;17.33;;;-1.10;99.90;;;;;;5036615;28;20170;-92
2022/12/12 12:36:56;;;;;;;36.67;17.03;;;-1.10;99.90;;;;;;5019980;28;20182;-91
2022/12/12 12:39:51;;;;;;;31.27;17.17;;;-1.10;99.90;;;;;;5036262;28;20197;-93
2022/12/12 12:42:39;;;;;;;33.33;16.67;;;-1.10;99.90;;;;;;5036597;28;20166;-92
2022/12/12 12:45:24;;;;;;;29.80;16.43;;;-1.10;99.90;;;;;;5036473;28;20265;-92
2022/12/12 12:47:59;;;;;;;34.57;17.50;;;-1.10;99.90;;;;;;5037125;28;20173;-92
2022/12/12 12:50:28;;;;;;;33.10;16.50;;;-1.10;99.90;;;;;;5036963;28;20197;-94
2022/12/12 12:52:56;;;;;;;31.77;16.20;;;-1.10;99.90;;;;;;5036924;28;20253;-92
2022/12/12 12:55:30;;;;;;;29.97;15.77;;;-1.10;99.90;;;;;;5037206;28;20236;-92
2022/12/12 12:57:59;;;;;;;34.87;18.37;;;-1.10;99.90;;;;;;5036741;28;20315;-92
2022/12/12 13:00:38;;;;;;;32.33;17.53;;;-1.00;99.90;;;;;;5036521;28;20241;-93
2022/12/12 13:03:13;;;;;;;32.53;16.93;;;-1.00;99.90;;;;;;5036999;28;20194;-91
2022/12/12 13:06:00;;;;;;;29.17;16.80;;;-1.00;99.90;;;;;;5046563;28;20228;-93
2022/12/12 13:08:35;;;;;;;30.93;16.53;;;-1.00;99.90;;;;;;5053846;28;20188;-92
2022/12/12 13:11:07;;;;;;;32.83;16.83;;;-0.90;99.90;;;;;;5053508;28;20682;-92
2022/12/12 13:13:38;;;;;;;32.53;18.07;;;-0.90;99.90;;;;;;5053541;28;20171;-92
2022/12/12 13:16:26;;;;;;;36.80;17.50;;;-0.90;99.90;;;;;;5036974;28;20560;-92
2022/12/12 13:19:30;;;;;;;26.80;15.30;;;-0.90;99.90;;;;;;5053729;28;20170;-92
2022/12/12 13:22:06;;;;;;;34.17;16.97;;;-0.80;99.90;;;;;;5053414;28;20269;-92
2022/12/12 13:24:42;;;;;;;30.77;15.63;;;-0.90;99.90;;;;;;5053204;28;20201;-92
2022/12/12 13:27:23;;;;;;;31.50;16.63;;;-0.80;99.90;;;;;;5037240;28;20641;-93
2022/12/12 13:30:09;;;;;;;30.93;16.30;;;-0.90;99.90;;;;;;5053720;28;20641;-93
2022/12/12 13:32:46;;;;;;;32.23;16.57;;;-0.90;99.90;;;;;;5055938;28;20582;-92
2022/12/12 13:35:19;;;;;;;30.73;16.77;;;-0.90;99.90;;;;;;5057366;28;20204;-92
2022/12/12 13:37:50;;;;;;;31.17;17.50;;;-0.90;99.90;;;;;;5040103;28;20546;-92
2022/12/12 13:40:38;;;;;;;34.47;16.63;;;-0.90;99.90;;;;;;5057030;28;20555;-91
2022/12/12 13:43:06;;;;;;;31.97;17.27;;;-0.90;99.90;;;;;;5056283;28;20649;-94